Time;durP1;ratioP1;P1;durP2;ratioP2;P2;SDS_P1;SDS_P2;PMS_P1;PMS_P2;Temp;Humidity;BMP_temperature;BMP_pressure;BME280_temperature;BME280_humidity;BME280_pressure;Samples;Min_cycle;Max_cycle;Signal;HPM_P1;HPM_P2
2022/07/15 00:02:26;;;;;;;2.50;2.10;;;;;;;15.97;89.99;96460.02;108837;1264;22525;-81
2022/07/15 00:05:11;;;;;;;2.00;1.80;;;;;;;16.05;89.70;96433.84;108839;1264;25546;-80
2022/07/15 00:07:45;;;;;;;3.30;2.20;;;;;;;16.15;89.27;96436.23;108818;1264;22666;-81
2022/07/15 00:10:26;;;;;;;1.70;1.60;;;;;;;16.18;88.71;96434.25;108832;1264;24993;-80
2022/07/15 00:13:03;;;;;;;1.70;1.60;;;;;;;16.19;88.76;96434.61;108788;1264;22638;-81
2022/07/15 00:15:35;;;;;;;2.70;2.00;;;;;;;16.15;88.84;96427.93;108649;1264;106681;-80
2022/07/15 00:18:12;;;;;;;3.20;2.10;;;;;;;16.17;89.01;96429.52;108810;1264;22529;-81
2022/07/15 00:20:50;;;;;;;2.10;1.90;;;;;;;16.14;89.16;96420.98;108867;1264;23801;-81
2022/07/15 00:23:25;;;;;;;3.20;2.20;;;;;;;16.07;89.24;96400.25;108836;1264;22605;-81
2022/07/15 00:26:01;;;;;;;2.60;2.10;;;;;;;16.05;89.38;96378.31;108623;1264;114021;-80
2022/07/15 00:28:35;;;;;;;2.30;2.10;;;;;;;16.07;89.48;96373.79;108862;1264;26418;-80
2022/07/15 00:31:13;;;;;;;2.10;1.70;;;;;;;16.06;89.50;96382.22;108804;1263;22677;-81
2022/07/15 00:33:44;;;;;;;2.50;1.90;;;;;;;16.02;89.77;96384.50;108875;1264;22540;-81
2022/07/15 00:36:20;;;;;;;2.90;2.00;;;;;;;15.98;90.04;96385.88;108581;1264;119338;-81
2022/07/15 00:38:57;;;;;;;2.20;1.80;;;;;;;15.91;90.68;96397.13;108759;1264;23815;-81
2022/07/15 00:41:36;;;;;;;2.10;1.90;;;;;;;15.86;91.11;96395.61;108834;1264;26773;-81
2022/07/15 00:44:12;;;;;;;2.30;1.80;;;;;;;15.86;90.90;96399.89;108785;1264;22532;-81
2022/07/15 00:46:54;;;;;;;2.30;2.10;;;;;;;15.90;91.13;96404.85;108578;1264;103375;-81
2022/07/15 00:49:28;;;;;;;1.90;1.80;;;;;;;15.92;91.21;96410.15;108812;1264;24215;-81
2022/07/15 00:52:07;;;;;;;2.00;1.70;;;;;;;15.94;90.88;96414.14;108792;1263;23403;-80
2022/07/15 00:54:41;;;;;;;3.90;1.80;;;;;;;15.99;90.58;96415.34;108686;1264;25431;-81
2022/07/15 00:57:13;;;;;;;2.10;1.90;;;;;;;16.08;90.31;96416.91;108613;1264;92416;-81
2022/07/15 00:59:56;;;;;;;2.60;1.60;;;;;;;16.12;89.98;96421.36;108806;1264;24221;-81
2022/07/15 01:02:43;;;;;;;2.40;1.60;;;;;;;16.15;89.92;96406.30;108792;1264;24154;-81
2022/07/15 01:05:19;;;;;;;2.40;1.60;;;;;;;16.16;90.05;96394.16;104627;1264;5406580;-80
2022/07/15 01:08:07;;;;;;;2.90;2.10;;;;;;;16.15;89.71;96401.54;108734;1264;44430;-81
2022/07/15 01:10:41;;;;;;;1.80;1.70;;;;;;;16.22;89.47;96410.73;108872;1265;24986;-81
2022/07/15 01:13:19;;;;;;;1.80;1.60;;;;;;;16.22;89.47;96420.04;108853;1265;22545;-81
2022/07/15 01:15:54;;;;;;;2.90;1.30;;;;;;;16.19;89.11;96416.20;108690;1264;89105;-81
2022/07/15 01:18:28;;;;;;;5.50;1.60;;;;;;;16.13;88.80;96417.43;108807;1265;22544;-81
2022/07/15 01:21:02;;;;;;;1.60;1.40;;;;;;;16.10;88.82;96415.23;108787;1265;25929;-81
2022/07/15 01:23:40;;;;;;;3.00;1.60;;;;;;;16.16;89.00;96416.79;108813;1265;22560;-81
2022/07/15 01:26:22;;;;;;;2.20;1.60;;;;;;;16.16;88.77;96408.92;108618;1264;81823;-81
2022/07/15 01:28:55;;;;;;;1.70;1.50;;;;;;;16.20;89.11;96407.06;108834;1265;22532;-81
2022/07/15 01:31:27;;;;;;;2.60;1.70;;;;;;;16.22;89.15;96407.89;108880;1265;25352;-81
2022/07/15 01:34:03;;;;;;;3.80;1.80;;;;;;;16.22;89.13;96411.95;108832;1265;22625;-81
2022/07/15 01:36:37;;;;;;;3.40;1.50;;;;;;;16.21;88.87;96403.04;108654;1265;117601;-81
2022/07/15 01:39:08;;;;;;;2.30;1.50;;;;;;;16.19;88.89;96398.34;108825;1264;22735;-81
2022/07/15 01:41:45;;;;;;;2.10;1.60;;;;;;;16.22;88.93;96405.90;108812;1264;22549;-81
2022/07/15 01:44:27;;;;;;;1.60;1.40;;;;;;;16.25;89.00;96409.63;108820;1264;22535;-81
2022/07/15 01:47:03;;;;;;;1.40;1.30;;;;;;;16.22;89.01;96405.45;107386;1264;1730248;-81
2022/07/15 01:49:49;;;;;;;1.50;1.40;;;;;;;16.02;89.18;96405.91;108790;1265;22701;-81
2022/07/15 01:52:29;;;;;;;2.20;1.70;;;;;;;15.99;89.52;96411.06;108783;1265;22535;-81
2022/07/15 01:55:07;;;;;;;1.60;1.50;;;;;;;16.04;89.76;96414.02;108777;1264;23846;-81
2022/07/15 01:57:41;;;;;;;1.70;1.60;;;;;;;16.07;89.69;96418.05;108657;1265;22860;-81
2022/07/15 02:00:21;;;;;;;3.20;1.90;;;;;;;16.12;89.64;96421.75;108796;1264;22649;-81
2022/07/15 02:03:13;;;;;;;2.60;1.80;;;;;;;16.07;89.61;96423.45;108849;1264;22591;-81
2022/07/15 02:05:52;;;;;;;1.80;1.60;;;;;;;15.93;89.91;96425.55;108618;1265;100234;-81
2022/07/15 02:08:26;;;;;;;2.00;1.80;;;;;;;15.92;90.37;96430.87;108876;1264;22552;-81
2022/07/15 02:11:02;;;;;;;2.60;1.40;;;;;;;15.96;90.42;96431.78;108858;1265;22570;-81
2022/07/15 02:13:34;;;;;;;2.60;1.60;;;;;;;16.01;90.36;96425.98;108853;1264;24924;-81
2022/07/15 02:16:08;;;;;;;1.60;1.50;;;;;;;16.07;90.23;96425.92;108679;1265;58992;-81
2022/07/15 02:18:41;;;;;;;1.90;1.40;;;;;;;16.09;90.09;96427.20;108790;1265;24353;-81
2022/07/15 02:21:16;;;;;;;1.90;1.20;;;;;;;16.12;89.96;96429.77;108863;1265;22563;-81
2022/07/15 02:23:55;;;;;;;1.80;1.50;;;;;;;16.14;89.90;96427.49;108808;1265;22627;-81
2022/07/15 02:26:31;;;;;;;1.70;1.50;;;;;;;16.16;89.87;96427.58;108620;1265;101427;-81
2022/07/15 02:29:04;;;;;;;1.60;1.50;;;;;;;16.18;89.77;96422.70;108770;1265;24014;-81
2022/07/15 02:31:45;;;;;;;1.50;1.40;;;;;;;16.23;89.75;96425.88;108785;1265;24229;-81
2022/07/15 02:34:21;;;;;;;1.50;1.40;;;;;;;16.28;89.60;96425.80;108774;1265;22634;-80
2022/07/15 02:36:53;;;;;;;1.30;1.10;;;;;;;16.24;89.36;96431.29;108611;1265;71647;-81
2022/07/15 02:39:30;;;;;;;1.60;1.50;;;;;;;16.19;89.34;96429.79;108822;1265;22546;-81
2022/07/15 02:42:04;;;;;;;1.30;1.10;;;;;;;16.16;89.36;96428.34;108789;1264;26413;-80
2022/07/15 02:44:41;;;;;;;1.80;1.30;;;;;;;16.14;89.38;96431.45;108802;1265;25088;-81
2022/07/15 02:47:20;;;;;;;1.70;1.40;;;;;;;16.13;89.45;96430.48;108546;1265;101075;-80
2022/07/15 02:49:54;;;;;;;1.50;1.40;;;;;;;16.09;89.29;96429.43;108766;1265;22531;-80
2022/07/15 02:52:30;;;;;;;1.40;1.10;;;;;;;16.01;89.33;96430.31;108775;1263;24996;-80
2022/07/15 02:55:13;;;;;;;2.60;1.50;;;;;;;15.98;89.35;96429.58;108776;1265;22515;-80
2022/07/15 02:57:44;;;;;;;1.60;1.50;;;;;;;15.97;89.34;96430.54;108754;1263;22545;-81
2022/07/15 03:00:22;;;;;;;1.40;1.30;;;;;;;15.97;89.39;96431.20;108721;1265;24219;-81
2022/07/15 03:02:59;;;;;;;1.30;1.20;;;;;;;15.97;89.45;96433.06;108769;1264;22726;-80
2022/07/15 03:05:35;;;;;;;1.60;1.40;;;;;;;15.97;89.54;96428.25;107143;1265;1970129;-80
2022/07/15 03:08:11;;;;;;;1.60;1.30;;;;;;;15.96;89.60;96436.09;108725;1265;22541;-81
2022/07/15 03:10:45;;;;;;;1.70;1.30;;;;;;;15.97;89.65;96439.33;108787;1265;24039;-80
2022/07/15 03:13:19;;;;;;;1.70;1.40;;;;;;;15.98;89.47;96435.89;108736;1265;22658;-80
2022/07/15 03:15:56;;;;;;;2.10;1.50;;;;;;;15.95;89.45;96440.46;108583;1265;105084;-80
2022/07/15 03:18:36;;;;;;;2.60;1.80;;;;;;;15.88;89.55;96441.53;108751;1265;22856;-80
2022/07/15 03:21:18;;;;;;;2.60;1.60;;;;;;;15.87;89.57;96446.38;108778;1265;22557;-80
2022/07/15 03:23:49;;;;;;;2.20;1.40;;;;;;;15.93;89.66;96449.36;108768;1264;22755;-80
2022/07/15 03:26:23;;;;;;;2.40;1.70;;;;;;;15.96;89.67;96455.30;108579;1264;92502;-80
2022/07/15 03:28:57;;;;;;;1.80;1.60;;;;;;;16.00;89.55;96451.58;108802;1265;22549;-80
2022/07/15 03:31:28;;;;;;;2.90;1.50;;;;;;;16.06;89.54;96451.84;108840;1265;22556;-80
2022/07/15 03:34:03;;;;;;;3.40;1.50;;;;;;;16.09;89.44;96453.28;108813;1265;24015;-80
2022/07/15 03:36:37;;;;;;;1.70;1.50;;;;;;;16.18;89.47;96457.10;108558;1265;111828;-80
2022/07/15 03:39:13;;;;;;;1.60;1.50;;;;;;;16.28;89.19;96460.95;108791;1264;25674;-80
2022/07/15 03:41:50;;;;;;;2.50;1.60;;;;;;;16.42;89.16;96459.15;108758;1265;26564;-80
2022/07/15 03:44:28;;;;;;;1.90;1.70;;;;;;;16.50;88.91;96462.35;108796;1264;22540;-81
2022/07/15 03:47:08;;;;;;;1.70;1.60;;;;;;;16.58;88.85;96464.85;108667;1265;84207;-80
2022/07/15 03:49:41;;;;;;;1.80;1.50;;;;;;;16.66;88.62;96464.61;108840;1265;22609;-80
2022/07/15 03:52:19;;;;;;;2.30;1.30;;;;;;;16.75;88.55;96465.74;108846;1265;22581;-80
2022/07/15 03:54:51;;;;;;;2.00;1.70;;;;;;;16.86;88.36;96467.65;108841;1265;22538;-80
2022/07/15 03:57:32;;;;;;;2.20;1.70;;;;;;;16.89;87.54;96473.29;108593;1264;105280;-80
2022/07/15 04:00:10;;;;;;;1.80;1.50;;;;;;;16.89;87.28;96470.52;108816;1265;22558;-80
2022/07/15 04:02:51;;;;;;;2.60;1.70;;;;;;;16.98;87.33;96476.77;108735;1265;25280;-80
2022/07/15 04:05:28;;;;;;;3.60;2.10;;;;;;;17.10;87.16;96481.52;108563;1265;96279;-80
2022/07/15 04:08:04;;;;;;;2.20;2.00;;;;;;;17.22;86.97;96486.69;108820;1264;22673;-80
2022/07/15 04:10:38;;;;;;;2.80;2.60;;;;;;;17.34;86.67;96487.06;108796;1264;22579;-80
2022/07/15 04:13:18;;;;;;;5.60;5.10;;;;;;;17.41;86.22;96486.31;108820;1264;23984;-81
2022/07/15 04:15:57;;;;;;;3.90;3.40;;;;;;;17.43;85.78;96485.10;108585;1264;98661;-80
2022/07/15 04:18:39;;;;;;;4.90;3.70;;;;;;;17.29;85.52;96492.69;108723;1265;26398;-80
2022/07/15 04:21:16;;;;;;;3.90;3.60;;;;;;;17.21;85.87;96494.98;108750;1265;23847;-80
2022/07/15 04:23:53;;;;;;;4.60;4.20;;;;;;;17.20;86.04;96494.27;108730;1265;23886;-80
2022/07/15 04:26:30;;;;;;;4.80;4.20;;;;;;;17.26;86.15;96502.05;108644;1264;83303;-80
2022/07/15 04:29:03;;;;;;;4.90;3.80;;;;;;;17.22;86.01;96510.64;108837;1264;23812;-80
2022/07/15 04:31:34;;;;;;;5.00;4.50;;;;;;;17.13;86.03;96508.15;108823;1264;22554;-80
2022/07/15 04:34:11;;;;;;;7.60;5.70;;;;;;;17.17;86.48;96510.98;108824;1264;22663;-80
2022/07/15 04:36:55;;;;;;;5.90;5.20;;;;;;;17.20;86.23;96513.71;106560;1264;2840488;-80
2022/07/15 04:39:32;;;;;;;5.10;4.70;;;;;;;17.17;85.95;96515.95;108862;1264;22550;-80
2022/07/15 04:42:17;;;;;;;5.50;4.70;;;;;;;17.20;86.05;96517.77;108734;1265;25296;-80
2022/07/15 04:44:52;;;;;;;5.60;5.00;;;;;;;17.28;86.10;96518.42;108833;1264;25780;-80
2022/07/15 04:47:28;;;;;;;6.60;5.40;;;;;;;17.35;85.57;96518.96;108566;1264;119146;-80
2022/07/15 04:52:52;;;;;;;7.50;5.60;;;;;;;17.43;84.27;96530.45;108807;1264;22538;-80
2022/07/15 04:55:26;;;;;;;6.30;5.40;;;;;;;17.38;83.90;96535.30;108529;1264;137420;-79
2022/07/15 04:58:04;;;;;;;6.10;5.50;;;;;;;17.44;84.00;96541.35;108805;1263;22564;-80
2022/07/15 05:00:40;;;;;;;6.60;5.70;;;;;;;17.54;83.66;96545.39;108801;1264;24891;-80
2022/07/15 05:03:18;;;;;;;9.70;6.20;;;;;;;17.57;83.25;96547.90;108807;1264;24467;-80
2022/07/15 05:05:52;;;;;;;7.00;5.80;;;;;;;17.65;83.04;96549.30;106915;1264;2232647;-80
2022/07/15 05:08:24;;;;;;;6.50;5.80;;;;;;;17.74;82.54;96553.52;108757;1264;23328;-80
2022/07/15 05:11:00;;;;;;;6.70;5.90;;;;;;;17.70;82.21;96560.94;108752;1264;22575;-80
2022/07/15 05:13:39;;;;;;;7.20;6.50;;;;;;;17.70;82.08;96564.38;108781;1264;22582;-80
2022/07/15 05:16:16;;;;;;;7.60;6.70;;;;;;;17.68;81.26;96568.58;108489;1264;113645;-80
2022/07/15 05:18:53;;;;;;;8.90;7.00;;;;;;;17.65;81.72;96578.84;108860;1263;22540;-80
2022/07/15 05:21:33;;;;;;;7.50;6.80;;;;;;;17.62;81.54;96586.65;108618;1265;24025;-80
2022/07/15 05:24:13;;;;;;;10.20;7.40;;;;;;;17.56;81.21;96595.41;108819;1264;22535;-80
2022/07/15 05:26:47;;;;;;;10.60;7.80;;;;;;;17.67;80.57;96605.45;108559;1264;112228;-81
2022/07/15 05:29:25;;;;;;;9.90;8.90;;;;;;;17.96;78.41;96614.02;108812;1264;22538;-80
2022/07/15 05:32:01;;;;;;;10.70;9.70;;;;;;;17.45;78.75;96620.40;108759;1264;25537;-80
2022/07/15 05:34:40;;;;;;;11.40;10.10;;;;;;;17.11;79.74;96625.20;108806;1264;22683;-80
2022/07/15 05:37:25;;;;;;;11.10;8.80;;;;;;;16.93;80.53;96638.17;108605;1264;82414;-81
2022/07/15 05:39:57;;;;;;;12.10;8.90;;;;;;;17.00;80.78;96638.09;108688;1264;22578;-80
2022/07/15 05:42:37;;;;;;;11.00;9.50;;;;;;;17.28;81.25;96641.48;108799;1264;22586;-79
2022/07/15 05:45:26;;;;;;;11.90;10.20;;;;;;;18.15;80.24;96642.49;108704;1264;22523;-79
2022/07/15 05:48:05;;;;;;;10.00;8.60;;;;;;;18.03;78.06;96644.77;108611;1264;22590;-80
2022/07/15 05:50:42;;;;;;;9.90;8.40;;;;;;;18.14;78.95;96646.73;108493;1264;24683;-80
2022/07/15 05:53:19;;;;;;;9.90;8.90;;;;;;;18.92;77.91;96645.01;108514;1263;22553;-79
2022/07/15 05:55:54;;;;;;;10.10;9.00;;;;;;;19.37;76.28;96649.21;108329;1264;112530;-80
2022/07/15 05:58:29;;;;;;;9.80;8.80;;;;;;;18.95;73.91;96661.20;108357;1264;25372;-80
2022/07/15 06:01:09;;;;;;;10.50;9.40;;;;;;;18.62;74.72;96665.80;108770;1264;23819;-80
2022/07/15 06:03:43;;;;;;;11.10;10.00;;;;;;;18.58;75.14;96676.92;108744;1264;22524;-80
2022/07/15 06:06:21;;;;;;;11.40;10.30;;;;;;;18.57;75.15;96676.38;108428;1264;127424;-80
2022/07/15 06:08:56;;;;;;;9.80;8.80;;;;;;;18.62;74.93;96679.94;108518;1264;22530;-80
2022/07/15 06:11:27;;;;;;;11.90;10.60;;;;;;;18.52;73.44;96677.08;108772;1263;22752;-80
2022/07/15 06:14:06;;;;;;;14.10;11.30;;;;;;;18.44;73.76;96682.30;108765;1264;22545;-80
2022/07/15 06:16:39;;;;;;;12.00;10.70;;;;;;;18.33;73.96;96691.56;108621;1264;98877;-80
2022/07/15 06:19:21;;;;;;;12.60;11.40;;;;;;;17.94;73.70;96695.54;108753;1264;22685;-80
2022/07/15 06:21:58;;;;;;;13.40;12.10;;;;;;;17.56;74.96;96703.41;108763;1264;22530;-80
2022/07/15 06:24:35;;;;;;;11.90;10.80;;;;;;;18.84;78.06;96706.99;108744;1264;22530;-80
2022/07/15 06:27:09;;;;;;;11.70;9.20;;;;;;;22.38;75.61;96701.04;108509;1264;86539;-80
2022/07/15 06:29:46;;;;;;;11.90;7.10;;;;;;;25.45;70.37;96698.52;108837;1264;22577;-80
2022/07/15 06:32:18;;;;;;;8.10;7.20;;;;;;;27.70;61.16;96697.77;108778;1264;22617;-81
2022/07/15 06:34:51;;;;;;;8.30;6.60;;;;;;;28.99;56.82;96704.50;108776;1264;22549;-80
2022/07/15 06:37:26;;;;;;;5.50;4.90;;;;;;;29.75;52.69;96707.48;108617;1264;115789;-81
2022/07/15 06:39:58;;;;;;;5.90;4.00;;;;;;;31.03;51.61;96705.26;108825;1264;25163;-79
2022/07/15 06:42:41;;;;;;;6.20;4.10;;;;;;;32.85;46.29;96708.85;108478;1264;26601;-81
2022/07/15 06:45:15;;;;;;;6.10;3.40;;;;;;;31.90;42.79;96708.38;108465;1264;134833;-79
2022/07/15 06:47:51;;;;;;;4.60;3.50;;;;;;;32.36;41.54;96711.23;108577;1263;22644;-81
2022/07/15 06:50:24;;;;;;;5.00;3.30;;;;;;;33.03;40.49;96715.80;108818;1264;22643;-81
2022/07/15 06:52:58;;;;;;;4.20;3.20;;;;;;;33.78;39.95;96714.69;108870;1264;22536;-81
2022/07/15 06:55:34;;;;;;;4.40;2.70;;;;;;;34.23;38.73;96720.61;108592;1264;126061;-81
2022/07/15 06:58:09;;;;;;;4.50;2.40;;;;;;;35.76;37.92;96723.55;108582;1264;22552;-80
2022/07/15 07:00:46;;;;;;;2.70;2.10;;;;;;;36.52;34.63;96729.25;108789;1264;22542;-79
2022/07/15 07:03:25;;;;;;;4.20;2.40;;;;;;;36.53;33.23;96726.88;108745;1264;26964;-79
2022/07/15 07:06:00;;;;;;;3.90;2.60;;;;;;;36.99;32.31;96728.91;108455;1264;151660;-80
2022/07/15 07:08:31;;;;;;;3.60;2.10;;;;;;;36.06;30.26;96731.15;108755;1264;23301;-80
2022/07/15 07:11:08;;;;;;;2.30;2.10;;;;;;;35.92;32.15;96738.31;108752;1264;22678;-80
2022/07/15 07:13:45;;;;;;;3.80;2.40;;;;;;;37.21;31.81;96737.17;108763;1264;22558;-80
2022/07/15 07:16:26;;;;;;;3.80;3.10;;;;;;;37.04;28.57;96739.38;108500;1264;133019;-80
2022/07/15 07:18:58;;;;;;;3.10;2.10;;;;;;;35.30;27.91;96745.67;108764;1264;22729;-79
2022/07/15 07:21:36;;;;;;;4.10;2.30;;;;;;;32.11;29.36;96748.10;108481;1264;22540;-79
2022/07/15 07:24:21;;;;;;;4.10;2.50;;;;;;;30.04;31.95;96750.16;108502;1264;23850;-81
2022/07/15 07:26:55;;;;;;;3.00;2.10;;;;;;;30.38;31.54;96751.16;108580;1264;91971;-80
2022/07/15 07:29:30;;;;;;;5.00;2.60;;;;;;;29.15;31.97;96751.10;108853;1264;22517;-79
2022/07/15 07:32:03;;;;;;;2.30;2.10;;;;;;;29.51;33.21;96755.25;108508;1263;22556;-81
2022/07/15 07:34:43;;;;;;;3.90;2.30;;;;;;;29.97;33.43;96757.84;108833;1264;25420;-81
2022/07/15 07:37:21;;;;;;;4.40;2.30;;;;;;;30.00;31.66;96761.93;108600;1264;105313;-81
2022/07/15 07:39:55;;;;;;;3.50;2.00;;;;;;;27.56;33.32;96764.11;108911;1263;22520;-82
2022/07/15 07:42:32;;;;;;;6.30;2.10;;;;;;;28.54;35.15;96763.95;108876;1264;22562;-81
2022/07/15 07:45:16;;;;;;;3.20;2.00;;;;;;;31.09;33.55;96768.30;108809;1263;25426;-81
2022/07/15 07:47:51;;;;;;;3.20;1.80;;;;;;;33.21;31.74;96759.63;108734;1264;22583;-82
2022/07/15 07:50:26;;;;;;;2.60;1.70;;;;;;;35.04;30.57;96766.42;108832;1264;25338;-81
2022/07/15 07:53:03;;;;;;;2.70;1.60;;;;;;;37.10;31.33;96767.59;108751;1262;22631;-80
2022/07/15 07:55:41;;;;;;;3.30;1.70;;;;;;;37.35;28.86;96762.53;108190;1264;125321;-79
2022/07/15 07:58:15;;;;;;;4.00;1.60;;;;;;;34.36;27.16;96774.83;108521;1264;22627;-79
2022/07/15 08:00:52;;;;;;;3.80;1.50;;;;;;;31.65;29.55;96783.61;108514;1264;25451;-81
2022/07/15 08:03:24;;;;;;;;;;;;;;;33.73;30.28;96778.17;108739;1264;22514;-80
2022/07/15 08:05:59;;;;;;;3.90;1.50;;;;;;;34.96;27.90;96785.33;107302;1264;1682772;-80
2022/07/15 08:08:30;;;;;;;2.00;1.20;;;;;;;35.27;27.63;96785.36;108683;1264;22520;-80
2022/07/15 08:11:04;;;;;;;2.20;1.20;;;;;;;34.68;24.86;96779.09;108695;1264;22611;-82
2022/07/15 08:13:46;;;;;;;2.10;1.00;;;;;;;33.31;25.91;96775.15;108742;1264;23757;-81
2022/07/15 08:16:18;;;;;;;2.00;1.00;;;;;;;32.38;26.19;96776.58;108575;1264;100219;-80
2022/07/15 08:18:53;;;;;;;2.00;1.20;;;;;;;32.20;27.70;96783.60;108721;1264;25399;-80
2022/07/15 08:21:28;;;;;;;2.40;1.10;;;;;;;33.87;28.18;96782.60;108806;1264;22532;-81
2022/07/15 08:24:02;;;;;;;3.90;1.10;;;;;;;35.25;25.52;96788.95;108682;1264;24017;-81
2022/07/15 08:26:40;;;;;;;2.10;1.20;;;;;;;32.84;24.52;96793.94;108575;1264;132621;-81
2022/07/15 08:29:19;;;;;;;3.80;1.30;;;;;;;29.22;27.91;96797.15;108825;1263;22573;-81
2022/07/15 08:31:54;;;;;;;2.90;1.50;;;;;;;27.97;31.13;96794.98;108880;1261;22529;-81
2022/07/15 08:34:30;;;;;;;2.00;1.20;;;;;;;30.43;31.03;96796.15;108891;1264;22596;-80
2022/07/15 08:37:01;;;;;;;4.70;1.60;;;;;;;31.63;29.76;96795.35;108656;1264;94552;-80
2022/07/15 08:39:38;;;;;;;2.20;1.10;;;;;;;31.65;28.80;96793.22;108796;1264;22620;-80
2022/07/15 08:42:21;;;;;;;3.40;1.30;;;;;;;29.87;29.04;96796.30;108803;1264;24356;-80
2022/07/15 08:45:05;;;;;;;2.70;1.30;;;;;;;27.97;30.58;96796.90;108752;1264;22565;-80
2022/07/15 08:47:43;;;;;;;5.20;1.50;;;;;;;27.36;32.27;96797.98;108731;1264;22531;-80
2022/07/15 08:50:22;;;;;;;2.80;1.40;;;;;;;28.68;32.38;96799.38;108860;1263;22546;-80
2022/07/15 08:53:07;;;;;;;3.10;1.80;;;;;;;30.17;31.29;96792.17;108775;1264;25461;-80
2022/07/15 08:55:55;;;;;;;4.20;1.80;;;;;;;29.29;30.16;96797.64;108582;1264;104716;-80
2022/07/15 08:58:46;;;;;;;2.60;1.50;;;;;;;26.72;32.53;96799.88;108835;1264;22531;-80
2022/07/15 09:01:29;;;;;;;3.60;1.60;;;;;;;27.63;33.58;96798.46;108869;1264;22554;-80
2022/07/15 09:04:05;;;;;;;3.20;1.40;;;;;;;27.91;32.39;96795.64;108872;1264;24256;-80
2022/07/15 09:06:46;;;;;;;3.70;1.60;;;;;;;26.78;34.53;96800.60;108670;1264;78661;-80
2022/07/15 09:09:37;;;;;;;2.40;1.50;;;;;;;24.67;35.22;96800.72;108811;1264;22548;-80
2022/07/15 09:12:15;;;;;;;4.70;2.00;;;;;;;22.63;39.03;96809.12;108953;1264;22738;-79
2022/07/15 09:14:52;;;;;;;4.60;2.30;;;;;;;21.40;41.99;96818.01;108844;1264;22542;-79
2022/07/15 09:17:30;;;;;;;5.30;2.20;;;;;;;20.83;43.20;96811.48;108280;1264;121136;-78
2022/07/15 09:20:16;;;;;;;6.70;2.60;;;;;;;20.79;43.84;96818.96;108463;1264;22526;-79
2022/07/15 09:23:00;;;;;;;3.70;1.90;;;;;;;20.77;44.88;96822.54;108502;1264;22568;-79
2022/07/15 09:25:36;;;;;;;5.50;2.20;;;;;;;20.61;45.50;96819.75;106906;1264;2013655;-79
2022/07/15 09:28:15;;;;;;;4.50;2.10;;;;;;;20.91;45.29;96813.65;108512;1264;25109;-79
2022/07/15 09:33:43;;;;;;;3.00;1.80;;;;;;;21.53;45.20;96807.89;108331;1264;24180;-79
2022/07/15 09:36:26;;;;;;;4.80;1.80;;;;;;;21.50;45.35;96803.86;108195;1264;200463;-79
2022/07/15 09:39:11;;;;;;;4.00;1.80;;;;;;;21.32;44.16;96810.47;108487;1264;22538;-79
2022/07/15 09:41:50;;;;;;;4.80;1.70;;;;;;;21.02;44.31;96807.42;108516;1264;23886;-79
2022/07/15 09:44:27;;;;;;;5.30;2.10;;;;;;;20.92;45.00;96805.11;108372;1264;22714;-79
2022/07/15 09:47:03;;;;;;;5.00;1.70;;;;;;;21.05;45.41;96805.98;108346;1261;86254;-79
2022/07/15 09:49:40;;;;;;;6.10;2.10;;;;;;;21.36;46.27;96806.58;108498;1264;22653;-79
2022/07/15 09:52:22;;;;;;;4.90;2.10;;;;;;;22.09;46.52;96806.44;108503;1264;23843;-79
2022/07/15 09:54:56;;;;;;;2.40;1.20;;;;;;;22.12;43.82;96806.36;108519;1263;22724;-79
2022/07/15 09:57:33;;;;;;;2.90;1.20;;;;;;;21.15;43.33;96805.80;108299;1264;113567;-79
2022/07/15 10:00:08;;;;;;;3.00;1.20;;;;;;;20.38;44.74;96805.74;108560;1264;22558;-79
2022/07/15 10:02:49;;;;;;;2.30;1.40;;;;;;;20.40;45.63;96801.03;108573;1263;22539;-78
2022/07/15 10:05:24;;;;;;;5.10;1.60;;;;;;;20.77;45.56;96799.76;108294;1264;118996;-78
2022/07/15 10:07:58;;;;;;;5.30;1.40;;;;;;;21.01;45.40;96800.63;108534;1264;23902;-78
2022/07/15 10:10:30;;;;;;;3.10;1.50;;;;;;;20.82;44.95;96800.89;108611;1264;22543;-78
2022/07/15 10:13:15;;;;;;;3.90;1.70;;;;;;;20.40;45.40;96800.52;108554;1264;23843;-78
2022/07/15 10:15:58;;;;;;;3.10;1.60;;;;;;;19.99;46.46;96807.47;108371;1264;92084;-78
2022/07/15 10:18:49;;;;;;;4.80;1.60;;;;;;;20.28;47.33;96804.05;108647;1264;22815;-79
2022/07/15 10:21:34;;;;;;;4.30;1.70;;;;;;;20.72;47.11;96800.92;108577;1262;22548;-79
2022/07/15 10:24:43;;;;;;;4.60;1.60;;;;;;;20.85;45.80;96800.45;108598;1264;22535;-78
2022/07/15 10:27:46;;;;;;;5.80;1.80;;;;;;;20.70;45.76;96810.31;108296;1263;145242;-78
2022/07/15 10:30:24;;;;;;;5.00;2.00;;;;;;;20.59;45.82;96811.52;108448;1264;22551;-78
2022/07/15 10:33:18;;;;;;;4.40;2.10;;;;;;;20.59;46.46;96810.91;108652;1263;22521;-78
2022/07/15 10:36:06;;;;;;;6.50;1.80;;;;;;;20.64;46.96;96809.38;108373;1264;75896;-78
2022/07/15 10:39:04;;;;;;;2.30;1.20;;;;;;;20.87;47.67;96813.14;108543;1264;24173;-78
2022/07/15 10:41:56;;;;;;;3.90;1.40;;;;;;;21.05;45.27;96808.65;108538;1264;23846;-78
2022/07/15 10:44:31;;;;;;;4.90;1.90;;;;;;;20.76;45.41;96807.56;108502;1264;22745;-78
2022/07/15 10:47:38;;;;;;;4.00;1.70;;;;;;;20.97;46.15;96807.82;108341;1264;102164;-79
2022/07/15 10:50:43;;;;;;;4.60;1.60;;;;;;;20.96;46.04;96810.09;108507;1264;23919;-78
2022/07/15 10:53:24;;;;;;;8.20;2.00;;;;;;;20.85;46.63;96818.08;108470;1263;22634;-78
2022/07/15 10:56:30;;;;;;;5.20;1.70;;;;;;;20.52;46.30;96822.09;106620;1264;2354239;-79
2022/07/15 10:59:20;;;;;;;4.10;1.60;;;;;;;20.07;46.06;96823.48;108616;1264;24212;-78
2022/07/15 11:02:11;;;;;;;3.70;2.00;;;;;;;20.04;47.24;96819.50;108345;1262;24408;-78
2022/07/15 11:04:46;;;;;;;4.00;1.80;;;;;;;20.41;47.52;96815.31;108344;1264;22953;-78
2022/07/15 11:07:36;;;;;;;4.00;1.80;;;;;;;20.82;47.17;96806.29;107484;1264;1253586;-78
2022/07/15 11:10:20;;;;;;;4.80;1.70;;;;;;;20.95;47.44;96810.21;108482;1264;23247;-79
2022/07/15 11:13:13;;;;;;;4.10;1.70;;;;;;;21.09;46.77;96813.47;108571;1264;23254;-79
2022/07/15 11:16:03;;;;;;;7.50;1.80;;;;;;;20.99;45.21;96814.17;108404;1264;86375;-78
2022/07/15 11:18:49;;;;;;;3.60;1.20;;;;;;;21.00;44.74;96820.95;108583;1264;22649;-78
2022/07/15 11:21:43;;;;;;;3.50;1.40;;;;;;;20.98;44.53;96816.40;108571;1262;22542;-78
2022/07/15 11:24:16;;;;;;;6.30;1.30;;;;;;;20.98;45.77;96809.46;108596;1264;22526;-78
2022/07/15 11:26:53;;;;;;;5.40;1.30;;;;;;;20.92;46.42;96808.51;106968;1263;2069112;-78
2022/07/15 11:29:25;;;;;;;3.60;1.40;;;;;;;20.98;46.12;96808.10;108585;1264;23878;-78
2022/07/15 11:31:58;;;;;;;4.70;1.50;;;;;;;20.95;45.99;96815.37;108589;1264;22627;-78
2022/07/15 11:34:49;;;;;;;4.40;1.30;;;;;;;21.19;46.47;96819.41;108597;1264;22565;-78
2022/07/15 11:37:43;;;;;;;3.70;1.20;;;;;;;21.56;44.79;96821.00;108571;1264;22630;-78
2022/07/15 11:46:10;;;;;;;5.00;1.30;;;;;;;21.20;44.11;96814.56;108428;1264;89957;-78
2022/07/15 11:48:42;;;;;;;5.00;1.20;;;;;;;21.05;45.14;96817.28;108577;1264;25262;-77
2022/07/15 11:51:17;;;;;;;3.70;1.40;;;;;;;21.27;46.16;96811.94;108604;1264;22916;-78
2022/07/15 11:53:52;;;;;;;3.30;1.20;;;;;;;21.72;45.78;96817.05;108588;1264;22537;-77
2022/07/15 11:56:25;;;;;;;1.90;0.90;;;;;;;21.95;44.61;96814.54;108372;1264;80323;-78
2022/07/15 11:59:00;;;;;;;2.00;1.00;;;;;;;21.71;43.58;96823.02;108537;1264;22999;-78
2022/07/15 12:01:43;;;;;;;3.80;1.40;;;;;;;21.53;43.40;96828.08;108546;1264;26569;-78
2022/07/15 12:04:29;;;;;;;4.30;0.90;;;;;;;21.19;44.71;96832.18;108513;1264;24123;-78
2022/07/15 12:07:01;;;;;;;2.30;1.10;;;;;;;20.91;44.47;96836.58;103263;1264;6832984;-78
2022/07/15 12:09:50;;;;;;;3.10;1.30;;;;;;;20.86;45.01;96835.30;108472;1264;22682;-77
2022/07/15 12:12:31;;;;;;;1.10;1.00;;;;;;;20.92;44.31;96834.29;108376;1264;26580;-78
2022/07/15 12:15:04;;;;;;;3.50;1.10;;;;;;;21.04;44.07;96829.35;108502;1264;22674;-78
2022/07/15 12:17:43;;;;;;;4.60;1.40;;;;;;;20.98;44.73;96835.17;108492;1264;22561;-78
2022/07/15 12:20:31;;;;;;;2.50;1.20;;;;;;;21.07;45.17;96839.45;108468;1263;22585;-77
2022/07/15 12:23:18;;;;;;;5.20;1.40;;;;;;;20.84;45.62;96838.99;108465;1264;22549;-78
2022/07/15 12:26:05;;;;;;;4.30;1.30;;;;;;;20.89;46.14;96842.14;108348;1263;80626;-78